sensor_id;sensor_type;location;lat;lon;timestamp;P1;durP1;ratioP1;P2;durP2;ratioP2
20621;SDS011;10470;42.670;23.354;2023-07-09T00:02:27;4.93;;;3.00;;
20621;SDS011;10470;42.670;23.354;2023-07-09T00:04:56;3.97;;;2.90;;
20621;SDS011;10470;42.670;23.354;2023-07-09T00:07:30;3.33;;;3.03;;
20621;SDS011;10470;42.670;23.354;2023-07-09T00:10:01;7.23;;;3.10;;
20621;SDS011;10470;42.670;23.354;2023-07-09T00:12:30;3.77;;;2.90;;
20621;SDS011;10470;42.670;23.354;2023-07-09T00:14:59;4.60;;;2.97;;
20621;SDS011;10470;42.670;23.354;2023-07-09T00:17:29;3.87;;;3.07;;
20621;SDS011;10470;42.670;23.354;2023-07-09T00:20:02;4.03;;;3.03;;
20621;SDS011;10470;42.670;23.354;2023-07-09T00:22:33;4.37;;;2.80;;
20621;SDS011;10470;42.670;23.354;2023-07-09T00:25:03;2.70;;;2.50;;
20621;SDS011;10470;42.670;23.354;2023-07-09T00:27:32;4.30;;;2.70;;
20621;SDS011;10470;42.670;23.354;2023-07-09T00:30:01;5.23;;;2.80;;
20621;SDS011;10470;42.670;23.354;2023-07-09T00:32:33;4.67;;;2.97;;
20621;SDS011;10470;42.670;23.354;2023-07-09T00:35:12;5.30;;;2.83;;
20621;SDS011;10470;42.670;23.354;2023-07-09T00:37:44;4.83;;;3.00;;
20621;SDS011;10470;42.670;23.354;2023-07-09T00:40:16;7.10;;;2.90;;
20621;SDS011;10470;42.670;23.354;2023-07-09T00:42:49;6.47;;;2.80;;
20621;SDS011;10470;42.670;23.354;2023-07-09T00:45:22;3.00;;;2.70;;
20621;SDS011;10470;42.670;23.354;2023-07-09T00:47:57;4.60;;;3.17;;
20621;SDS011;10470;42.670;23.354;2023-07-09T00:53:03;3.47;;;2.70;;
20621;SDS011;10470;42.670;23.354;2023-07-09T00:55:38;3.30;;;3.00;;
20621;SDS011;10470;42.670;23.354;2023-07-09T00:58:13;6.10;;;2.67;;
20621;SDS011;10470;42.670;23.354;2023-07-09T01:00:46;6.50;;;3.00;;
20621;SDS011;10470;42.670;23.354;2023-07-09T01:03:37;3.10;;;2.80;;
20621;SDS011;10470;42.670;23.354;2023-07-09T01:06:12;3.77;;;2.87;;
20621;SDS011;10470;42.670;23.354;2023-07-09T01:08:43;4.03;;;2.80;;
20621;SDS011;10470;42.670;23.354;2023-07-09T01:11:15;4.00;;;2.80;;
20621;SDS011;10470;42.670;23.354;2023-07-09T01:13:52;3.77;;;2.97;;
20621;SDS011;10470;42.670;23.354;2023-07-09T01:16:25;3.30;;;2.87;;
20621;SDS011;10470;42.670;23.354;2023-07-09T01:18:57;5.13;;;2.80;;
20621;SDS011;10470;42.670;23.354;2023-07-09T01:21:26;4.60;;;3.17;;
20621;SDS011;10470;42.670;23.354;2023-07-09T01:23:56;8.17;;;3.10;;
20621;SDS011;10470;42.670;23.354;2023-07-09T01:26:26;5.37;;;2.97;;
20621;SDS011;10470;42.670;23.354;2023-07-09T01:28:57;5.40;;;3.13;;
20621;SDS011;10470;42.670;23.354;2023-07-09T01:31:25;4.70;;;2.63;;
20621;SDS011;10470;42.670;23.354;2023-07-09T01:33:55;2.80;;;2.50;;
20621;SDS011;10470;42.670;23.354;2023-07-09T01:36:24;3.07;;;2.73;;
20621;SDS011;10470;42.670;23.354;2023-07-09T01:38:55;5.70;;;3.20;;
20621;SDS011;10470;42.670;23.354;2023-07-09T01:41:25;3.40;;;2.87;;
20621;SDS011;10470;42.670;23.354;2023-07-09T01:43:54;5.43;;;2.97;;
20621;SDS011;10470;42.670;23.354;2023-07-09T01:46:23;5.20;;;2.90;;
20621;SDS011;10470;42.670;23.354;2023-07-09T01:48:53;5.10;;;2.67;;
20621;SDS011;10470;42.670;23.354;2023-07-09T01:51:22;4.47;;;2.80;;
20621;SDS011;10470;42.670;23.354;2023-07-09T01:53:52;3.23;;;2.90;;
20621;SDS011;10470;42.670;23.354;2023-07-09T01:56:23;5.23;;;2.90;;
20621;SDS011;10470;42.670;23.354;2023-07-09T01:58:53;6.93;;;2.73;;
20621;SDS011;10470;42.670;23.354;2023-07-09T02:01:29;5.73;;;2.80;;
20621;SDS011;10470;42.670;23.354;2023-07-09T02:04:01;5.87;;;2.70;;
20621;SDS011;10470;42.670;23.354;2023-07-09T02:06:31;3.40;;;2.83;;
20621;SDS011;10470;42.670;23.354;2023-07-09T02:09:00;5.27;;;3.40;;
20621;SDS011;10470;42.670;23.354;2023-07-09T02:11:29;7.20;;;2.93;;
20621;SDS011;10470;42.670;23.354;2023-07-09T02:13:58;4.13;;;2.90;;
20621;SDS011;10470;42.670;23.354;2023-07-09T02:16:28;8.10;;;2.80;;
20621;SDS011;10470;42.670;23.354;2023-07-09T02:18:57;4.60;;;2.70;;
20621;SDS011;10470;42.670;23.354;2023-07-09T02:21:27;4.50;;;2.90;;
20621;SDS011;10470;42.670;23.354;2023-07-09T02:24:00;4.20;;;3.20;;
20621;SDS011;10470;42.670;23.354;2023-07-09T02:26:30;3.97;;;3.33;;
20621;SDS011;10470;42.670;23.354;2023-07-09T02:28:59;4.03;;;3.00;;
20621;SDS011;10470;42.670;23.354;2023-07-09T02:31:28;6.93;;;3.30;;
20621;SDS011;10470;42.670;23.354;2023-07-09T02:33:58;3.77;;;3.47;;
20621;SDS011;10470;42.670;23.354;2023-07-09T02:36:28;3.90;;;3.40;;
20621;SDS011;10470;42.670;23.354;2023-07-09T02:38:57;4.77;;;3.80;;
20621;SDS011;10470;42.670;23.354;2023-07-09T02:41:27;5.40;;;4.27;;
20621;SDS011;10470;42.670;23.354;2023-07-09T02:43:56;5.23;;;4.00;;
20621;SDS011;10470;42.670;23.354;2023-07-09T02:46:26;5.63;;;4.37;;
20621;SDS011;10470;42.670;23.354;2023-07-09T02:48:55;6.30;;;4.20;;
20621;SDS011;10470;42.670;23.354;2023-07-09T02:51:25;6.57;;;4.67;;
20621;SDS011;10470;42.670;23.354;2023-07-09T02:53:59;7.60;;;4.57;;
20621;SDS011;10470;42.670;23.354;2023-07-09T02:56:30;8.33;;;5.10;;
20621;SDS011;10470;42.670;23.354;2023-07-09T02:59:00;6.93;;;4.80;;
20621;SDS011;10470;42.670;23.354;2023-07-09T03:01:29;6.27;;;5.00;;
20621;SDS011;10470;42.670;23.354;2023-07-09T03:03:59;7.17;;;5.10;;
20621;SDS011;10470;42.670;23.354;2023-07-09T03:06:31;4.53;;;4.13;;
20621;SDS011;10470;42.670;23.354;2023-07-09T03:09:01;6.53;;;4.50;;
20621;SDS011;10470;42.670;23.354;2023-07-09T03:11:34;6.27;;;4.83;;
20621;SDS011;10470;42.670;23.354;2023-07-09T03:14:03;7.10;;;4.57;;
20621;SDS011;10470;42.670;23.354;2023-07-09T03:16:33;5.40;;;4.60;;
20621;SDS011;10470;42.670;23.354;2023-07-09T03:19:02;7.33;;;4.63;;
20621;SDS011;10470;42.670;23.354;2023-07-09T03:21:31;5.93;;;4.97;;
20621;SDS011;10470;42.670;23.354;2023-07-09T03:24:02;7.20;;;5.10;;
20621;SDS011;10470;42.670;23.354;2023-07-09T03:26:31;5.70;;;5.10;;
20621;SDS011;10470;42.670;23.354;2023-07-09T03:29:01;5.80;;;4.97;;
20621;SDS011;10470;42.670;23.354;2023-07-09T03:31:31;7.50;;;5.37;;
20621;SDS011;10470;42.670;23.354;2023-07-09T03:34:03;5.97;;;5.13;;
20621;SDS011;10470;42.670;23.354;2023-07-09T03:36:33;7.17;;;5.07;;
20621;SDS011;10470;42.670;23.354;2023-07-09T03:39:02;6.57;;;5.13;;
20621;SDS011;10470;42.670;23.354;2023-07-09T03:41:33;8.23;;;5.40;;
20621;SDS011;10470;42.670;23.354;2023-07-09T03:44:02;7.80;;;5.27;;
20621;SDS011;10470;42.670;23.354;2023-07-09T03:46:32;7.97;;;5.03;;
20621;SDS011;10470;42.670;23.354;2023-07-09T03:49:02;10.13;;;4.97;;
20621;SDS011;10470;42.670;23.354;2023-07-09T03:51:32;8.63;;;4.80;;
20621;SDS011;10470;42.670;23.354;2023-07-09T03:54:01;8.67;;;5.23;;
20621;SDS011;10470;42.670;23.354;2023-07-09T03:56:31;8.17;;;4.73;;
20621;SDS011;10470;42.670;23.354;2023-07-09T03:59:00;6.33;;;5.00;;
20621;SDS011;10470;42.670;23.354;2023-07-09T04:01:30;8.00;;;4.87;;
20621;SDS011;10470;42.670;23.354;2023-07-09T04:03:59;6.60;;;4.70;;
20621;SDS011;10470;42.670;23.354;2023-07-09T04:06:29;8.80;;;4.93;;
20621;SDS011;10470;42.670;23.354;2023-07-09T04:08:59;9.57;;;4.73;;
20621;SDS011;10470;42.670;23.354;2023-07-09T04:11:28;8.90;;;4.90;;
20621;SDS011;10470;42.670;23.354;2023-07-09T04:13:58;5.37;;;4.80;;
20621;SDS011;10470;42.670;23.354;2023-07-09T04:16:28;7.97;;;4.87;;
20621;SDS011;10470;42.670;23.354;2023-07-09T04:18:58;6.83;;;4.37;;
20621;SDS011;10470;42.670;23.354;2023-07-09T04:21:27;4.93;;;4.37;;
20621;SDS011;10470;42.670;23.354;2023-07-09T04:23:57;7.63;;;5.20;;
20621;SDS011;10470;42.670;23.354;2023-07-09T04:26:27;7.77;;;4.93;;
20621;SDS011;10470;42.670;23.354;2023-07-09T04:28:57;5.20;;;4.57;;
20621;SDS011;10470;42.670;23.354;2023-07-09T04:31:26;7.13;;;4.80;;
20621;SDS011;10470;42.670;23.354;2023-07-09T04:33:56;6.40;;;4.53;;
20621;SDS011;10470;42.670;23.354;2023-07-09T04:36:25;5.33;;;4.30;;
20621;SDS011;10470;42.670;23.354;2023-07-09T04:38:55;6.43;;;4.30;;
20621;SDS011;10470;42.670;23.354;2023-07-09T04:41:25;8.03;;;5.57;;
20621;SDS011;10470;42.670;23.354;2023-07-09T04:43:55;11.20;;;6.27;;
20621;SDS011;10470;42.670;23.354;2023-07-09T04:46:25;9.33;;;5.63;;
20621;SDS011;10470;42.670;23.354;2023-07-09T04:48:55;8.07;;;5.40;;
20621;SDS011;10470;42.670;23.354;2023-07-09T04:51:26;7.87;;;5.80;;
20621;SDS011;10470;42.670;23.354;2023-07-09T04:53:55;11.53;;;6.10;;
20621;SDS011;10470;42.670;23.354;2023-07-09T04:56:25;8.27;;;5.57;;
20621;SDS011;10470;42.670;23.354;2023-07-09T04:58:54;6.83;;;5.00;;
20621;SDS011;10470;42.670;23.354;2023-07-09T05:01:24;6.27;;;4.93;;
20621;SDS011;10470;42.670;23.354;2023-07-09T05:03:54;11.57;;;4.57;;
20621;SDS011;10470;42.670;23.354;2023-07-09T05:06:23;9.53;;;5.20;;
20621;SDS011;10470;42.670;23.354;2023-07-09T05:08:53;8.00;;;5.43;;
20621;SDS011;10470;42.670;23.354;2023-07-09T05:11:23;11.87;;;5.30;;
20621;SDS011;10470;42.670;23.354;2023-07-09T05:13:53;10.93;;;6.80;;
20621;SDS011;10470;42.670;23.354;2023-07-09T05:16:23;10.23;;;6.10;;
20621;SDS011;10470;42.670;23.354;2023-07-09T05:18:53;10.40;;;6.03;;
20621;SDS011;10470;42.670;23.354;2023-07-09T05:21:23;6.37;;;5.17;;
20621;SDS011;10470;42.670;23.354;2023-07-09T05:23:53;12.27;;;5.90;;
20621;SDS011;10470;42.670;23.354;2023-07-09T05:26:23;8.33;;;5.10;;
20621;SDS011;10470;42.670;23.354;2023-07-09T05:28:53;8.60;;;4.90;;
20621;SDS011;10470;42.670;23.354;2023-07-09T05:31:26;5.07;;;4.20;;
20621;SDS011;10470;42.670;23.354;2023-07-09T05:33:54;8.57;;;5.00;;
20621;SDS011;10470;42.670;23.354;2023-07-09T05:36:23;6.97;;;4.13;;
20621;SDS011;10470;42.670;23.354;2023-07-09T05:38:54;6.00;;;3.20;;
20621;SDS011;10470;42.670;23.354;2023-07-09T05:41:24;8.90;;;4.30;;
20621;SDS011;10470;42.670;23.354;2023-07-09T05:43:54;6.53;;;4.10;;
20621;SDS011;10470;42.670;23.354;2023-07-09T05:46:24;9.17;;;4.60;;
20621;SDS011;10470;42.670;23.354;2023-07-09T05:48:54;5.87;;;4.10;;
20621;SDS011;10470;42.670;23.354;2023-07-09T05:51:25;7.47;;;3.57;;
20621;SDS011;10470;42.670;23.354;2023-07-09T05:53:55;4.50;;;3.70;;
20621;SDS011;10470;42.670;23.354;2023-07-09T05:56:26;8.80;;;4.07;;
20621;SDS011;10470;42.670;23.354;2023-07-09T05:58:56;9.80;;;6.53;;
20621;SDS011;10470;42.670;23.354;2023-07-09T06:01:24;7.57;;;5.10;;
20621;SDS011;10470;42.670;23.354;2023-07-09T06:03:54;8.27;;;3.67;;
20621;SDS011;10470;42.670;23.354;2023-07-09T06:06:25;11.03;;;6.60;;
20621;SDS011;10470;42.670;23.354;2023-07-09T06:08:54;7.80;;;6.20;;
20621;SDS011;10470;42.670;23.354;2023-07-09T06:11:25;5.23;;;4.50;;
20621;SDS011;10470;42.670;23.354;2023-07-09T06:13:55;10.57;;;4.57;;
20621;SDS011;10470;42.670;23.354;2023-07-09T06:16:25;6.30;;;3.80;;
20621;SDS011;10470;42.670;23.354;2023-07-09T06:18:55;4.40;;;3.73;;
20621;SDS011;10470;42.670;23.354;2023-07-09T06:21:23;6.37;;;4.00;;
20621;SDS011;10470;42.670;23.354;2023-07-09T06:23:52;6.83;;;4.30;;
20621;SDS011;10470;42.670;23.354;2023-07-09T06:26:23;7.20;;;3.87;;
20621;SDS011;10470;42.670;23.354;2023-07-09T06:28:54;8.10;;;5.50;;
20621;SDS011;10470;42.670;23.354;2023-07-09T06:31:24;8.17;;;5.50;;
20621;SDS011;10470;42.670;23.354;2023-07-09T06:33:54;8.63;;;5.53;;
20621;SDS011;10470;42.670;23.354;2023-07-09T06:36:24;7.17;;;4.50;;
20621;SDS011;10470;42.670;23.354;2023-07-09T06:38:54;6.30;;;3.83;;
20621;SDS011;10470;42.670;23.354;2023-07-09T06:41:24;6.43;;;3.93;;
20621;SDS011;10470;42.670;23.354;2023-07-09T06:43:55;8.80;;;4.13;;
20621;SDS011;10470;42.670;23.354;2023-07-09T06:46:24;5.80;;;3.97;;
20621;SDS011;10470;42.670;23.354;2023-07-09T06:48:55;4.13;;;3.40;;
20621;SDS011;10470;42.670;23.354;2023-07-09T06:51:25;4.33;;;3.23;;
20621;SDS011;10470;42.670;23.354;2023-07-09T06:53:56;4.83;;;3.40;;
20621;SDS011;10470;42.670;23.354;2023-07-09T06:56:27;4.97;;;3.37;;
20621;SDS011;10470;42.670;23.354;2023-07-09T06:58:57;6.87;;;3.70;;
20621;SDS011;10470;42.670;23.354;2023-07-09T07:01:28;5.17;;;3.60;;
20621;SDS011;10470;42.670;23.354;2023-07-09T07:03:58;4.27;;;3.17;;
20621;SDS011;10470;42.670;23.354;2023-07-09T07:06:26;4.27;;;3.20;;
20621;SDS011;10470;42.670;23.354;2023-07-09T07:08:56;3.43;;;3.10;;
20621;SDS011;10470;42.670;23.354;2023-07-09T07:11:26;5.30;;;3.20;;
20621;SDS011;10470;42.670;23.354;2023-07-09T07:13:59;4.77;;;3.40;;
20621;SDS011;10470;42.670;23.354;2023-07-09T07:16:30;5.10;;;3.10;;
20621;SDS011;10470;42.670;23.354;2023-07-09T07:19:01;8.43;;;3.80;;
20621;SDS011;10470;42.670;23.354;2023-07-09T07:21:31;3.77;;;3.40;;
20621;SDS011;10470;42.670;23.354;2023-07-09T07:24:01;6.47;;;3.50;;
20621;SDS011;10470;42.670;23.354;2023-07-09T07:26:31;10.30;;;3.60;;
20621;SDS011;10470;42.670;23.354;2023-07-09T07:28:59;4.17;;;3.50;;
20621;SDS011;10470;42.670;23.354;2023-07-09T07:31:29;6.10;;;3.50;;
20621;SDS011;10470;42.670;23.354;2023-07-09T07:34:00;4.97;;;3.37;;
20621;SDS011;10470;42.670;23.354;2023-07-09T07:36:30;4.77;;;3.30;;
20621;SDS011;10470;42.670;23.354;2023-07-09T07:39:01;6.23;;;3.20;;
20621;SDS011;10470;42.670;23.354;2023-07-09T07:41:30;8.00;;;3.50;;
20621;SDS011;10470;42.670;23.354;2023-07-09T07:43:59;5.57;;;3.37;;
20621;SDS011;10470;42.670;23.354;2023-07-09T07:46:28;5.47;;;3.10;;
20621;SDS011;10470;42.670;23.354;2023-07-09T07:49:02;6.43;;;3.23;;
20621;SDS011;10470;42.670;23.354;2023-07-09T07:51:33;4.47;;;3.50;;
20621;SDS011;10470;42.670;23.354;2023-07-09T07:54:03;7.87;;;3.63;;
20621;SDS011;10470;42.670;23.354;2023-07-09T07:56:34;7.97;;;3.53;;
20621;SDS011;10470;42.670;23.354;2023-07-09T07:59:04;7.60;;;3.30;;
20621;SDS011;10470;42.670;23.354;2023-07-09T08:01:35;5.03;;;3.53;;
20621;SDS011;10470;42.670;23.354;2023-07-09T08:04:04;3.57;;;3.27;;
20621;SDS011;10470;42.670;23.354;2023-07-09T08:06:35;4.93;;;3.27;;
20621;SDS011;10470;42.670;23.354;2023-07-09T08:09:05;4.73;;;3.30;;
20621;SDS011;10470;42.670;23.354;2023-07-09T08:11:35;5.60;;;3.33;;
20621;SDS011;10470;42.670;23.354;2023-07-09T08:14:06;8.97;;;3.53;;
20621;SDS011;10470;42.670;23.354;2023-07-09T08:16:36;4.20;;;3.30;;
20621;SDS011;10470;42.670;23.354;2023-07-09T08:19:07;5.67;;;3.50;;
20621;SDS011;10470;42.670;23.354;2023-07-09T08:21:38;3.87;;;3.10;;
20621;SDS011;10470;42.670;23.354;2023-07-09T08:24:09;6.17;;;3.40;;
20621;SDS011;10470;42.670;23.354;2023-07-09T08:26:39;3.73;;;3.43;;
20621;SDS011;10470;42.670;23.354;2023-07-09T08:29:10;5.13;;;3.77;;
20621;SDS011;10470;42.670;23.354;2023-07-09T08:31:40;6.17;;;3.23;;
20621;SDS011;10470;42.670;23.354;2023-07-09T08:34:11;4.70;;;3.10;;
20621;SDS011;10470;42.670;23.354;2023-07-09T08:36:41;4.60;;;3.47;;
20621;SDS011;10470;42.670;23.354;2023-07-09T08:39:09;5.03;;;3.77;;
20621;SDS011;10470;42.670;23.354;2023-07-09T08:41:49;3.80;;;3.20;;
20621;SDS011;10470;42.670;23.354;2023-07-09T08:49:41;11.53;;;4.17;;
20621;SDS011;10470;42.670;23.354;2023-07-09T08:52:33;8.17;;;3.90;;
20621;SDS011;10470;42.670;23.354;2023-07-09T08:55:09;4.53;;;3.57;;
20621;SDS011;10470;42.670;23.354;2023-07-09T08:57:46;7.17;;;3.73;;
20621;SDS011;10470;42.670;23.354;2023-07-09T09:00:23;4.20;;;3.80;;
20621;SDS011;10470;42.670;23.354;2023-07-09T09:03:03;4.50;;;3.80;;
20621;SDS011;10470;42.670;23.354;2023-07-09T09:05:41;3.60;;;3.30;;
20621;SDS011;10470;42.670;23.354;2023-07-09T09:08:20;4.87;;;3.87;;
20621;SDS011;10470;42.670;23.354;2023-07-09T09:13:58;6.60;;;3.80;;
20621;SDS011;10470;42.670;23.354;2023-07-09T09:16:32;6.57;;;3.97;;
20621;SDS011;10470;42.670;23.354;2023-07-09T09:19:26;4.13;;;3.73;;
20621;SDS011;10470;42.670;23.354;2023-07-09T09:22:09;6.37;;;3.90;;
20621;SDS011;10470;42.670;23.354;2023-07-09T09:27:28;6.17;;;3.87;;
20621;SDS011;10470;42.670;23.354;2023-07-09T09:29:56;5.23;;;3.73;;
20621;SDS011;10470;42.670;23.354;2023-07-09T09:32:27;4.87;;;3.97;;
20621;SDS011;10470;42.670;23.354;2023-07-09T09:34:58;9.40;;;4.40;;
20621;SDS011;10470;42.670;23.354;2023-07-09T09:37:30;5.40;;;3.90;;
20621;SDS011;10470;42.670;23.354;2023-07-09T09:40:00;5.43;;;4.00;;
20621;SDS011;10470;42.670;23.354;2023-07-09T09:42:28;5.37;;;3.97;;
20621;SDS011;10470;42.670;23.354;2023-07-09T09:44:56;7.83;;;3.70;;
20621;SDS011;10470;42.670;23.354;2023-07-09T09:47:27;7.60;;;3.87;;
20621;SDS011;10470;42.670;23.354;2023-07-09T09:49:58;5.50;;;3.97;;
20621;SDS011;10470;42.670;23.354;2023-07-09T09:52:29;6.13;;;4.90;;
20621;SDS011;10470;42.670;23.354;2023-07-09T09:55:02;9.03;;;4.93;;
20621;SDS011;10470;42.670;23.354;2023-07-09T09:57:39;4.90;;;4.40;;
20621;SDS011;10470;42.670;23.354;2023-07-09T10:00:12;5.37;;;4.43;;
20621;SDS011;10470;42.670;23.354;2023-07-09T10:02:44;4.20;;;3.90;;
20621;SDS011;10470;42.670;23.354;2023-07-09T10:05:16;4.93;;;4.10;;
20621;SDS011;10470;42.670;23.354;2023-07-09T10:08:03;7.13;;;5.07;;
20621;SDS011;10470;42.670;23.354;2023-07-09T10:10:38;5.30;;;4.80;;
20621;SDS011;10470;42.670;23.354;2023-07-09T10:13:31;5.20;;;4.00;;
20621;SDS011;10470;42.670;23.354;2023-07-09T10:16:23;5.47;;;4.57;;
20621;SDS011;10470;42.670;23.354;2023-07-09T10:19:02;5.23;;;4.10;;
20621;SDS011;10470;42.670;23.354;2023-07-09T10:21:41;5.50;;;3.90;;
20621;SDS011;10470;42.670;23.354;2023-07-09T10:39:38;4.63;;;3.50;;
20621;SDS011;10470;42.670;23.354;2023-07-09T10:42:57;4.03;;;3.70;;
20621;SDS011;10470;42.670;23.354;2023-07-09T10:45:26;4.20;;;3.50;;
20621;SDS011;10470;42.670;23.354;2023-07-09T10:48:18;4.67;;;4.27;;
20621;SDS011;10470;42.670;23.354;2023-07-09T10:51:04;3.90;;;3.60;;
20621;SDS011;10470;42.670;23.354;2023-07-09T10:53:47;5.60;;;5.00;;
20621;SDS011;10470;42.670;23.354;2023-07-09T10:56:27;3.80;;;3.50;;
20621;SDS011;10470;42.670;23.354;2023-07-09T11:01:42;4.40;;;3.23;;
20621;SDS011;10470;42.670;23.354;2023-07-09T11:06:50;3.20;;;2.90;;
20621;SDS011;10470;42.670;23.354;2023-07-09T11:09:38;3.57;;;3.27;;
20621;SDS011;10470;42.670;23.354;2023-07-09T11:12:17;5.40;;;3.30;;
20621;SDS011;10470;42.670;23.354;2023-07-09T11:14:58;3.40;;;3.10;;
20621;SDS011;10470;42.670;23.354;2023-07-09T11:17:31;4.77;;;3.30;;
20621;SDS011;10470;42.670;23.354;2023-07-09T11:20:07;3.17;;;2.87;;
20621;SDS011;10470;42.670;23.354;2023-07-09T11:22:50;4.57;;;3.87;;
20621;SDS011;10470;42.670;23.354;2023-07-09T11:25:30;3.40;;;2.97;;
20621;SDS011;10470;42.670;23.354;2023-07-09T11:28:09;4.23;;;3.23;;
20621;SDS011;10470;42.670;23.354;2023-07-09T11:33:19;5.20;;;3.17;;
20621;SDS011;10470;42.670;23.354;2023-07-09T11:36:09;3.20;;;2.90;;
20621;SDS011;10470;42.670;23.354;2023-07-09T11:38:41;3.03;;;2.70;;
20621;SDS011;10470;42.670;23.354;2023-07-09T11:44:12;4.50;;;3.10;;
20621;SDS011;10470;42.670;23.354;2023-07-09T11:52:22;4.13;;;3.10;;
20621;SDS011;10470;42.670;23.354;2023-07-09T11:54:56;3.33;;;3.03;;
20621;SDS011;10470;42.670;23.354;2023-07-09T11:57:24;3.20;;;2.90;;
20621;SDS011;10470;42.670;23.354;2023-07-09T11:59:59;3.70;;;3.13;;
20621;SDS011;10470;42.670;23.354;2023-07-09T12:02:32;4.67;;;3.00;;
20621;SDS011;10470;42.670;23.354;2023-07-09T12:05:02;6.83;;;4.20;;
20621;SDS011;10470;42.670;23.354;2023-07-09T12:07:34;3.50;;;3.20;;
20621;SDS011;10470;42.670;23.354;2023-07-09T12:10:09;6.07;;;4.67;;
20621;SDS011;10470;42.670;23.354;2023-07-09T12:12:53;3.17;;;2.90;;
20621;SDS011;10470;42.670;23.354;2023-07-09T12:15:28;3.40;;;3.10;;
20621;SDS011;10470;42.670;23.354;2023-07-09T12:18:03;5.23;;;2.80;;
20621;SDS011;10470;42.670;23.354;2023-07-09T12:20:40;3.43;;;2.53;;
20621;SDS011;10470;42.670;23.354;2023-07-09T12:23:30;4.57;;;3.17;;
20621;SDS011;10470;42.670;23.354;2023-07-09T12:26:04;3.43;;;2.90;;
20621;SDS011;10470;42.670;23.354;2023-07-09T12:28:36;4.53;;;3.10;;
20621;SDS011;10470;42.670;23.354;2023-07-09T12:31:04;3.37;;;3.07;;
20621;SDS011;10470;42.670;23.354;2023-07-09T12:33:45;5.17;;;2.90;;
20621;SDS011;10470;42.670;23.354;2023-07-09T12:36:16;5.47;;;3.13;;
20621;SDS011;10470;42.670;23.354;2023-07-09T12:38:49;4.20;;;3.00;;
20621;SDS011;10470;42.670;23.354;2023-07-09T12:41:23;6.47;;;3.50;;
20621;SDS011;10470;42.670;23.354;2023-07-09T12:44:20;4.53;;;3.10;;
20621;SDS011;10470;42.670;23.354;2023-07-09T12:46:52;3.03;;;2.80;;
20621;SDS011;10470;42.670;23.354;2023-07-09T12:52:00;3.83;;;3.25;;
20621;SDS011;10470;42.670;23.354;2023-07-09T12:54:33;3.70;;;2.85;;
20621;SDS011;10470;42.670;23.354;2023-07-09T12:57:08;4.00;;;3.05;;
20621;SDS011;10470;42.670;23.354;2023-07-09T12:59:45;3.83;;;3.20;;
20621;SDS011;10470;42.670;23.354;2023-07-09T13:02:21;5.20;;;3.95;;
20621;SDS011;10470;42.670;23.354;2023-07-09T13:04:59;3.92;;;3.15;;
20621;SDS011;10470;42.670;23.354;2023-07-09T13:07:31;3.42;;;3.10;;
20621;SDS011;10470;42.670;23.354;2023-07-09T13:10:23;4.47;;;3.00;;
20621;SDS011;10470;42.670;23.354;2023-07-09T13:12:55;3.23;;;2.60;;
20621;SDS011;10470;42.670;23.354;2023-07-09T13:15:28;3.13;;;2.83;;
20621;SDS011;10470;42.670;23.354;2023-07-09T13:17:58;4.17;;;3.10;;
20621;SDS011;10470;42.670;23.354;2023-07-09T13:20:33;6.73;;;3.00;;
20621;SDS011;10470;42.670;23.354;2023-07-09T13:23:14;4.87;;;2.83;;
20621;SDS011;10470;42.670;23.354;2023-07-09T13:25:43;3.10;;;2.80;;
20621;SDS011;10470;42.670;23.354;2023-07-09T13:28:19;8.17;;;2.83;;
20621;SDS011;10470;42.670;23.354;2023-07-09T13:30:53;3.45;;;3.05;;
20621;SDS011;10470;42.670;23.354;2023-07-09T13:33:26;3.13;;;2.87;;
20621;SDS011;10470;42.670;23.354;2023-07-09T13:35:55;5.40;;;3.20;;
20621;SDS011;10470;42.670;23.354;2023-07-09T13:38:26;2.73;;;2.53;;
20621;SDS011;10470;42.670;23.354;2023-07-09T13:40:57;3.55;;;3.10;;
20621;SDS011;10470;42.670;23.354;2023-07-09T13:43:31;4.60;;;3.10;;
20621;SDS011;10470;42.670;23.354;2023-07-09T13:46:02;4.50;;;3.00;;
20621;SDS011;10470;42.670;23.354;2023-07-09T13:48:34;3.00;;;2.70;;
20621;SDS011;10470;42.670;23.354;2023-07-09T13:51:19;5.13;;;2.87;;
20621;SDS011;10470;42.670;23.354;2023-07-09T13:53:50;8.10;;;3.10;;
20621;SDS011;10470;42.670;23.354;2023-07-09T13:56:22;4.63;;;2.70;;
20621;SDS011;10470;42.670;23.354;2023-07-09T13:58:50;7.00;;;2.80;;
20621;SDS011;10470;42.670;23.354;2023-07-09T14:01:23;5.43;;;3.00;;
20621;SDS011;10470;42.670;23.354;2023-07-09T14:03:52;3.83;;;3.10;;
20621;SDS011;10470;42.670;23.354;2023-07-09T14:06:26;4.50;;;2.83;;
20621;SDS011;10470;42.670;23.354;2023-07-09T14:08:54;4.53;;;3.38;;
20621;SDS011;10470;42.670;23.354;2023-07-09T14:11:24;4.50;;;3.13;;
20621;SDS011;10470;42.670;23.354;2023-07-09T14:13:55;3.57;;;2.83;;
20621;SDS011;10470;42.670;23.354;2023-07-09T14:16:23;5.30;;;3.08;;
20621;SDS011;10470;42.670;23.354;2023-07-09T14:18:52;4.57;;;2.80;;
20621;SDS011;10470;42.670;23.354;2023-07-09T14:21:24;3.40;;;3.10;;
20621;SDS011;10470;42.670;23.354;2023-07-09T14:23:58;5.20;;;2.90;;
20621;SDS011;10470;42.670;23.354;2023-07-09T14:26:27;5.50;;;3.00;;
20621;SDS011;10470;42.670;23.354;2023-07-09T14:28:55;4.35;;;3.25;;
20621;SDS011;10470;42.670;23.354;2023-07-09T14:31:28;3.20;;;2.90;;
20621;SDS011;10470;42.670;23.354;2023-07-09T14:37:01;4.28;;;3.10;;
20621;SDS011;10470;42.670;23.354;2023-07-09T14:39:29;4.32;;;3.00;;
20621;SDS011;10470;42.670;23.354;2023-07-09T14:41:58;3.28;;;2.97;;
20621;SDS011;10470;42.670;23.354;2023-07-09T14:44:28;3.40;;;3.10;;
20621;SDS011;10470;42.670;23.354;2023-07-09T14:47:04;4.40;;;2.90;;
20621;SDS011;10470;42.670;23.354;2023-07-09T14:49:44;5.97;;;2.80;;
20621;SDS011;10470;42.670;23.354;2023-07-09T14:52:16;6.53;;;2.95;;
20621;SDS011;10470;42.670;23.354;2023-07-09T14:54:48;3.40;;;2.70;;
20621;SDS011;10470;42.670;23.354;2023-07-09T14:57:20;3.13;;;2.88;;
20621;SDS011;10470;42.670;23.354;2023-07-09T14:59:51;9.07;;;3.00;;
20621;SDS011;10470;42.670;23.354;2023-07-09T15:05:05;3.00;;;2.72;;
20621;SDS011;10470;42.670;23.354;2023-07-09T15:07:42;3.42;;;2.55;;
20621;SDS011;10470;42.670;23.354;2023-07-09T15:10:25;5.00;;;3.00;;
20621;SDS011;10470;42.670;23.354;2023-07-09T15:12:57;3.45;;;2.72;;
20621;SDS011;10470;42.670;23.354;2023-07-09T15:15:29;3.67;;;2.67;;
20621;SDS011;10470;42.670;23.354;2023-07-09T15:18:08;3.22;;;3.03;;
20621;SDS011;10470;42.670;23.354;2023-07-09T15:20:42;6.07;;;3.17;;
20621;SDS011;10470;42.670;23.354;2023-07-09T15:23:18;4.25;;;2.95;;
20621;SDS011;10470;42.670;23.354;2023-07-09T15:25:50;3.97;;;2.80;;
20621;SDS011;10470;42.670;23.354;2023-07-09T15:28:19;3.55;;;2.67;;
20621;SDS011;10470;42.670;23.354;2023-07-09T15:30:47;3.95;;;2.83;;
20621;SDS011;10470;42.670;23.354;2023-07-09T15:33:18;4.17;;;2.73;;
20621;SDS011;10470;42.670;23.354;2023-07-09T15:35:49;3.50;;;3.20;;
20621;SDS011;10470;42.670;23.354;2023-07-09T15:38:25;4.93;;;3.30;;
20621;SDS011;10470;42.670;23.354;2023-07-09T15:40:57;4.93;;;3.17;;
20621;SDS011;10470;42.670;23.354;2023-07-09T15:43:25;3.00;;;2.80;;
20621;SDS011;10470;42.670;23.354;2023-07-09T15:45:55;3.30;;;2.90;;
20621;SDS011;10470;42.670;23.354;2023-07-09T15:48:34;3.00;;;2.70;;
20621;SDS011;10470;42.670;23.354;2023-07-09T15:51:07;3.40;;;2.92;;
20621;SDS011;10470;42.670;23.354;2023-07-09T15:53:37;5.07;;;3.27;;
20621;SDS011;10470;42.670;23.354;2023-07-09T15:56:23;4.65;;;3.40;;
20621;SDS011;10470;42.670;23.354;2023-07-09T15:58:56;3.80;;;3.50;;